Time;durP1;ratioP1;P1;durP2;ratioP2;P2;SDS_P1;SDS_P2;PMS_P1;PMS_P2;Temp;Humidity;BMP_temperature;BMP_pressure;BME280_temperature;BME280_humidity;BME280_pressure;Samples;Min_cycle;Max_cycle;Signal;HPM_P1;HPM_P2
2022/06/06 00:01:16;;;;;;;16.42;14.38;;;;;;;;;;5084553;28;20128;-76
2022/06/06 00:03:43;;;;;;;17.08;15.30;;;;;;;;;;5076996;28;20044;-76
2022/06/06 00:06:10;;;;;;;17.77;15.85;;;;;;;;;;5075285;28;20044;-76
2022/06/06 00:08:37;;;;;;;14.02;12.63;;;;;;;;;;5067457;28;20495;-76
2022/06/06 00:11:04;;;;;;;15.32;13.82;;;;;;;;;;5056947;28;20430;-76
2022/06/06 00:13:31;;;;;;;18.65;15.90;;;;;;;;;;5060965;28;20116;-76
2022/06/06 00:15:58;;;;;;;18.55;15.35;;;;;;;;;;5062599;28;20045;-76
2022/06/06 00:18:24;;;;;;;14.43;13.02;;;;;;;;;;5075159;28;20171;-76
2022/06/06 00:20:50;;;;;;;11.98;10.68;;;;;;;;;;5067300;28;20080;-75
2022/06/06 00:23:16;;;;;;;10.77;9.68;;;;;;;;;;5057398;28;20553;-75
2022/06/06 00:25:42;;;;;;;9.85;8.60;;;;;;;;;;5069289;28;20410;-75
2022/06/06 00:28:08;;;;;;;9.20;8.20;;;;;;;;;;5074871;28;20052;-75
2022/06/06 00:30:34;;;;;;;10.15;8.90;;;;;;;;;;5079395;28;20052;-76
2022/06/06 00:35:45;;;;;;;9.68;7.00;;;;;;;;;;5056522;28;20054;-76
2022/06/06 00:38:11;;;;;;;8.85;6.13;;;;;;;;;;5065264;28;20056;-76
2022/06/06 00:40:37;;;;;;;8.68;7.13;;;;;;;;;;5062607;28;20044;-76
2022/06/06 00:43:03;;;;;;;9.38;6.53;;;;;;;;;;5074375;28;20064;-75
2022/06/06 00:45:34;;;;;;;8.18;7.22;;;;;;;;;;5065884;28;20060;-75
2022/06/06 00:48:00;;;;;;;9.25;7.10;;;;;;;;;;5062119;28;20068;-76
2022/06/06 00:50:45;;;;;;;9.27;7.10;;;;;;;;;;5074944;28;20047;-75
2022/06/06 00:53:12;;;;;;;9.25;7.72;;;;;;;;;;5075506;28;20037;-76
2022/06/06 00:55:41;;;;;;;8.55;6.97;;;;;;;;;;5061510;28;20061;-76
2022/06/06 00:58:11;;;;;;;7.78;6.50;;;;;;;;;;5057798;28;20045;-75
2022/06/06 01:00:39;;;;;;;8.52;5.78;;;;;;;;;;5079918;28;20045;-76
2022/06/06 01:03:06;;;;;;;6.93;6.10;;;;;;;;;;5096744;28;20040;-75
2022/06/06 01:05:32;;;;;;;8.30;5.97;;;;;;;;;;5091496;28;20047;-75
2022/06/06 01:07:58;;;;;;;7.18;5.15;;;;;;;;;;5075868;28;20047;-76
2022/06/06 01:10:24;;;;;;;6.80;5.13;;;;;;;;;;5072322;28;20217;-76
2022/06/06 01:12:52;;;;;;;7.55;5.63;;;;;;;;;;5074546;28;20048;-75
2022/06/06 01:15:19;;;;;;;7.50;5.30;;;;;;;;;;5070064;28;20041;-76
2022/06/06 01:17:46;;;;;;;6.40;4.32;;;;;;;;;;5070452;28;20040;-75
2022/06/06 01:20:22;;;;;;;6.13;4.70;;;;;;;;;;5056918;28;20049;-75
2022/06/06 01:23:02;;;;;;;6.53;4.40;;;;;;;;;;5054406;28;20053;-75
2022/06/06 01:25:38;;;;;;;6.50;4.45;;;;;;;;;;5073020;28;20414;-76
2022/06/06 01:28:16;;;;;;;8.68;4.18;;;;;;;;;;5057569;28;20056;-76
2022/06/06 01:30:48;;;;;;;6.72;4.60;;;;;;;;;;5055511;28;20033;-76
2022/06/06 01:33:15;;;;;;;6.10;4.80;;;;;;;;;;5066410;28;20055;-75
2022/06/06 01:35:43;;;;;;;6.95;4.90;;;;;;;;;;5073183;28;20037;-75
2022/06/06 01:38:10;;;;;;;6.72;5.40;;;;;;;;;;5075714;28;20043;-76
2022/06/06 01:40:57;;;;;;;6.80;5.43;;;;;;;;;;5072604;28;20566;-76
2022/06/06 01:43:29;;;;;;;7.05;5.50;;;;;;;;;;5067442;28;20407;-75
2022/06/06 01:46:00;;;;;;;7.70;5.80;;;;;;;;;;5060503;28;20048;-76
2022/06/06 01:48:29;;;;;;;9.02;5.63;;;;;;;;;;5058377;28;20033;-76
2022/06/06 01:50:55;;;;;;;7.68;5.63;;;;;;;;;;5055049;28;20041;-75
2022/06/06 01:53:23;;;;;;;7.82;6.03;;;;;;;;;;5055327;28;20041;-75
2022/06/06 01:55:50;;;;;;;7.40;5.95;;;;;;;;;;5072531;28;20040;-75
2022/06/06 01:58:21;;;;;;;7.97;6.25;;;;;;;;;;5069719;28;20033;-76
2022/06/06 02:00:48;;;;;;;7.57;5.90;;;;;;;;;;5074586;28;20055;-75
2022/06/06 02:03:14;;;;;;;7.38;5.80;;;;;;;;;;5067317;28;20040;-76
2022/06/06 02:05:40;;;;;;;7.70;5.95;;;;;;;;;;5077449;28;20048;-75
2022/06/06 02:08:07;;;;;;;7.65;5.57;;;;;;;;;;5092210;28;20047;-75
2022/06/06 02:10:33;;;;;;;6.63;5.07;;;;;;;;;;5080817;28;20487;-74
2022/06/06 02:12:59;;;;;;;6.85;4.80;;;;;;;;;;5060211;28;20093;-75
2022/06/06 02:15:27;;;;;;;8.27;5.10;;;;;;;;;;5068691;28;20052;-75
2022/06/06 02:17:54;;;;;;;6.60;4.72;;;;;;;;;;5062916;28;20585;-75
2022/06/06 02:20:22;;;;;;;6.18;4.65;;;;;;;;;;5056411;28;20130;-75
2022/06/06 02:22:48;;;;;;;6.80;4.78;;;;;;;;;;5054453;28;20045;-75
2022/06/06 02:25:15;;;;;;;6.22;4.78;;;;;;;;;;5054572;28;20036;-76
2022/06/06 02:27:41;;;;;;;7.20;4.05;;;;;;;;;;5060084;28;20055;-75
2022/06/06 02:30:09;;;;;;;6.10;4.10;;;;;;;;;;5074936;28;20119;-75
2022/06/06 02:32:35;;;;;;;5.82;4.07;;;;;;;;;;5062288;28;20137;-75
2022/06/06 02:35:01;;;;;;;6.85;4.43;;;;;;;;;;5074772;28;20079;-75
2022/06/06 02:37:27;;;;;;;7.60;4.55;;;;;;;;;;5072451;28;20044;-75
2022/06/06 02:39:53;;;;;;;6.13;4.32;;;;;;;;;;5063429;28;20448;-75
2022/06/06 02:42:19;;;;;;;6.25;4.28;;;;;;;;;;5074364;28;20056;-75
2022/06/06 02:44:45;;;;;;;6.72;5.05;;;;;;;;;;5070495;28;20049;-75
2022/06/06 02:47:12;;;;;;;7.03;4.80;;;;;;;;;;5059846;28;20414;-75
2022/06/06 02:49:38;;;;;;;9.73;7.32;;;;;;;;;;5070034;28;20052;-75
2022/06/06 02:52:05;;;;;;;11.98;8.85;;;;;;;;;;5054300;28;20045;-74
2022/06/06 02:54:31;;;;;;;11.15;9.82;;;;;;;;;;5055032;28;20048;-74
2022/06/06 02:56:59;;;;;;;14.75;12.65;;;;;;;;;;5073891;28;20418;-74
2022/06/06 02:59:26;;;;;;;17.20;14.05;;;;;;;;;;5069386;28;20041;-75
2022/06/06 03:01:52;;;;;;;15.05;12.20;;;;;;;;;;5058401;28;20059;-75
2022/06/06 03:04:18;;;;;;;15.55;12.18;;;;;;;;;;5074276;28;20066;-75
2022/06/06 03:06:47;;;;;;;14.45;12.02;;;;;;;;;;5073838;28;20076;-75
2022/06/06 03:09:26;;;;;;;14.68;10.70;;;;;;;;;;5072569;28;20536;-74
2022/06/06 03:12:12;;;;;;;14.73;11.27;;;;;;;;;;5065029;28;20041;-75
2022/06/06 03:14:41;;;;;;;12.18;9.65;;;;;;;;;;5088539;28;20105;-75
2022/06/06 03:23:16;;;;;;;13.95;9.10;;;;;;;;;;5050426;28;20403;-74
2022/06/06 03:25:49;;;;;;;14.60;10.27;;;;;;;;;;5064349;28;20045;-75
2022/06/06 03:28:34;;;;;;;15.27;9.95;;;;;;;;;;5070358;28;20053;-76
2022/06/06 03:31:08;;;;;;;15.80;11.13;;;;;;;;;;5050669;28;20040;-75
2022/06/06 03:33:42;;;;;;;17.25;12.68;;;;;;;;;;5058918;28;20052;-74
2022/06/06 03:36:15;;;;;;;20.17;13.75;;;;;;;;;;5063859;28;20051;-75
2022/06/06 03:38:55;;;;;;;20.20;13.73;;;;;;;;;;5071759;28;20051;-75
2022/06/06 03:41:21;;;;;;;21.00;14.38;;;;;;;;;;5063650;28;20419;-74
2022/06/06 03:43:57;;;;;;;25.38;17.05;;;;;;;;;;5072501;28;20063;-75
2022/06/06 03:46:29;;;;;;;29.50;18.67;;;;;;;;;;5066037;28;20036;-74
2022/06/06 03:49:07;;;;;;;34.35;19.90;;;;;;;;;;5070988;28;20060;-74
2022/06/06 03:51:48;;;;;;;29.00;18.90;;;;;;;;;;5053061;28;20045;-75
2022/06/06 03:54:20;;;;;;;28.42;18.70;;;;;;;;;;5055759;28;20056;-75
2022/06/06 03:56:53;;;;;;;28.35;18.15;;;;;;;;;;5041189;28;20055;-75
2022/06/06 03:59:20;;;;;;;28.67;17.63;;;;;;;;;;5068376;28;20045;-75
2022/06/06 04:01:47;;;;;;;31.58;16.60;;;;;;;;;;5056175;28;20041;-75
2022/06/06 04:04:14;;;;;;;22.23;13.27;;;;;;;;;;5072534;28;20104;-75
2022/06/06 04:06:40;;;;;;;21.73;12.70;;;;;;;;;;5053998;28;20053;-74
2022/06/06 04:09:06;;;;;;;21.75;12.52;;;;;;;;;;5053697;28;20037;-76
2022/06/06 04:11:45;;;;;;;17.58;10.15;;;;;;;;;;5052506;28;20047;-75
2022/06/06 04:14:15;;;;;;;15.82;8.93;;;;;;;;;;5053607;28;20081;-74
2022/06/06 04:16:55;;;;;;;16.47;9.57;;;;;;;;;;5067739;28;20033;-75
2022/06/06 04:19:39;;;;;;;13.10;8.20;;;;;;;;;;5072212;28;20298;-75
2022/06/06 04:22:24;;;;;;;13.95;7.45;;;;;;;;;;5072238;28;20514;-75
2022/06/06 04:25:13;;;;;;;13.35;7.47;;;;;;;;;;5055473;28;20045;-74
2022/06/06 04:27:39;;;;;;;14.43;7.72;;;;;;;;;;5076509;28;20045;-75
2022/06/06 04:30:05;;;;;;;13.55;7.25;;;;;;;;;;5074543;28;20052;-76
2022/06/06 04:32:46;;;;;;;14.00;7.95;;;;;;;;;;5062390;28;20036;-76
2022/06/06 04:35:12;;;;;;;;;;;;;;;;;;5082319;28;20044;-75
2022/06/06 04:37:50;;;;;;;14.30;7.72;;;;;;;;;;5063772;28;20405;-75
2022/06/06 04:40:23;;;;;;;13.35;7.82;;;;;;;;;;5060750;28;20403;-75
2022/06/06 04:42:59;;;;;;;11.98;7.28;;;;;;;;;;5076502;28;20106;-75
2022/06/06 04:45:43;;;;;;;11.95;6.47;;;;;;;;;;5056747;28;20060;-74
2022/06/06 04:48:10;;;;;;;12.98;7.53;;;;;;;;;;5056935;28;20411;-74
2022/06/06 04:50:39;;;;;;;11.18;6.45;;;;;;;;;;5090697;28;20056;-75
2022/06/06 04:53:07;;;;;;;13.10;7.60;;;;;;;;;;5076600;28;20075;-75
2022/06/06 04:55:34;;;;;;;10.05;5.95;;;;;;;;;;5061587;28;20114;-75
2022/06/06 04:58:02;;;;;;;11.00;7.53;;;;;;;;;;5076038;28;20041;-75
2022/06/06 05:00:28;;;;;;;14.85;9.00;;;;;;;;;;5068777;28;20091;-74
2022/06/06 05:02:54;;;;;;;18.83;10.35;;;;;;;;;;5076267;28;20048;-74
2022/06/06 05:05:22;;;;;;;18.98;11.23;;;;;;;;;;5074210;28;20053;-75
2022/06/06 05:08:01;;;;;;;20.90;12.63;;;;;;;;;;5072709;28;20094;-75
2022/06/06 05:10:46;;;;;;;21.30;13.20;;;;;;;;;;5062863;28;20037;-75
2022/06/06 05:13:12;;;;;;;23.17;13.65;;;;;;;;;;5075064;28;20046;-75
2022/06/06 05:16:01;;;;;;;23.42;15.13;;;;;;;;;;5076037;28;20488;-74
2022/06/06 05:18:33;;;;;;;25.02;15.02;;;;;;;;;;5066585;28;20407;-75
2022/06/06 05:21:18;;;;;;;24.83;16.10;;;;;;;;;;5056112;28;20037;-75
2022/06/06 05:23:50;;;;;;;24.60;15.20;;;;;;;;;;5062282;28;20048;-75
2022/06/06 05:26:48;;;;;;;26.67;16.02;;;;;;;;;;5080470;28;20097;-75
2022/06/06 05:29:20;;;;;;;23.88;15.60;;;;;;;;;;5049720;28;20075;-74
2022/06/06 05:31:49;;;;;;;26.75;14.70;;;;;;;;;;5056138;28;20499;-75
2022/06/06 05:34:17;;;;;;;21.52;14.45;;;;;;;;;;5057830;28;20120;-75
2022/06/06 05:36:46;;;;;;;24.05;14.63;;;;;;;;;;5056616;28;20529;-76
2022/06/06 05:39:15;;;;;;;24.75;14.75;;;;;;;;;;5063135;28;20041;-74
2022/06/06 05:41:44;;;;;;;24.13;13.98;;;;;;;;;;5073125;28;20044;-74
2022/06/06 05:44:15;;;;;;;20.20;14.15;;;;;;;;;;5075921;28;20045;-74
2022/06/06 05:46:47;;;;;;;21.07;14.07;;;;;;;;;;5087078;28;20044;-74
2022/06/06 05:49:16;;;;;;;19.80;13.38;;;;;;;;;;5088197;28;20330;-74
2022/06/06 05:52:01;;;;;;;21.45;14.15;;;;;;;;;;5050142;28;20115;-75
2022/06/06 05:54:39;;;;;;;20.83;13.77;;;;;;;;;;5073524;28;20039;-74
2022/06/06 05:57:05;;;;;;;20.65;13.32;;;;;;;;;;5055386;28;20041;-75
2022/06/06 05:59:51;;;;;;;21.02;12.98;;;;;;;;;;5073032;28;20119;-74
2022/06/06 06:02:17;;;;;;;19.65;13.55;;;;;;;;;;5066776;28;20053;-74
2022/06/06 06:05:21;;;;;;;23.48;13.48;;;;;;;;;;5065092;28;20040;-75
2022/06/06 06:08:19;;;;;;;18.73;12.63;;;;;;;;;;5030430;28;20092;-75
2022/06/06 06:11:04;;;;;;;21.40;13.07;;;;;;;;;;5011249;28;20535;-75
2022/06/06 06:13:48;;;;;;;20.67;12.43;;;;;;;;;;5032161;28;20621;-76
2022/06/06 06:16:16;;;;;;;21.23;12.88;;;;;;;;;;5034999;28;20193;-74
2022/06/06 06:18:49;;;;;;;20.48;13.70;;;;;;;;;;5019016;28;20049;-74
2022/06/06 06:21:19;;;;;;;20.63;12.95;;;;;;;;;;4999368;28;20049;-75
2022/06/06 06:24:00;;;;;;;19.92;12.60;;;;;;;;;;5031949;28;20045;-74
2022/06/06 06:26:27;;;;;;;;;;;;;;;;;;5020514;28;20061;-75
2022/06/06 06:28:54;;;;;;;19.30;12.05;;;;;;;;;;4997061;28;19921;-74
2022/06/06 06:31:52;;;;;;;16.45;11.10;;;;;;;;;;5032504;28;20119;-75
2022/06/06 06:34:37;;;;;;;18.85;10.75;;;;;;;;;;4973994;28;20086;-75
2022/06/06 06:37:25;;;;;;;15.32;9.95;;;;;;;;;;4973380;28;20549;-75
2022/06/06 06:40:00;;;;;;;14.95;9.48;;;;;;;;;;5031866;28;20555;-73
2022/06/06 06:42:45;;;;;;;13.82;9.57;;;;;;;;;;5068544;28;20056;-74
2022/06/06 06:45:22;;;;;;;16.27;8.35;;;;;;;;;;5030713;28;20045;-74
2022/06/06 06:47:52;;;;;;;13.32;8.15;;;;;;;;;;5051086;28;20673;-73
2022/06/06 06:50:20;;;;;;;11.70;7.43;;;;;;;;;;5033295;28;20045;-74
2022/06/06 06:52:46;;;;;;;12.88;7.60;;;;;;;;;;5049078;28;20036;-75
2022/06/06 06:55:15;;;;;;;12.70;6.78;;;;;;;;;;5051793;28;20472;-75
2022/06/06 06:58:00;;;;;;;10.70;6.65;;;;;;;;;;5051017;28;20049;-75
2022/06/06 07:00:26;;;;;;;11.25;7.32;;;;;;;;;;5051177;28;20064;-76
2022/06/06 07:09:24;;;;;;;12.65;7.70;;;;;;;;;;5030535;28;20053;-74
2022/06/06 07:12:08;;;;;;;12.90;8.35;;;;;;;;;;5066530;28;20098;-74
2022/06/06 07:14:53;;;;;;;12.15;7.97;;;;;;;;;;5070402;28;20048;-75
2022/06/06 07:17:21;;;;;;;12.48;8.50;;;;;;;;;;5053495;28;20052;-74
2022/06/06 07:20:01;;;;;;;12.40;8.55;;;;;;;;;;5065244;28;20139;-74
2022/06/06 07:22:28;;;;;;;13.02;8.85;;;;;;;;;;5070137;28;20204;-74
2022/06/06 07:24:57;;;;;;;13.77;8.98;;;;;;;;;;5071178;28;20053;-75
2022/06/06 07:27:23;;;;;;;14.52;9.02;;;;;;;;;;5072635;28;20051;-75
2022/06/06 07:29:49;;;;;;;13.38;8.70;;;;;;;;;;5073325;28;20080;-75
2022/06/06 07:32:23;;;;;;;14.38;9.43;;;;;;;;;;5071649;28;20106;-75
2022/06/06 07:34:58;;;;;;;15.35;9.60;;;;;;;;;;5071130;28;20518;-75
2022/06/06 07:37:49;;;;;;;15.85;9.77;;;;;;;;;;5071692;28;20053;-74
2022/06/06 07:40:15;;;;;;;14.43;9.57;;;;;;;;;;5073331;28;20045;-74
2022/06/06 07:43:00;;;;;;;17.15;11.02;;;;;;;;;;5073253;28;20055;-76
2022/06/06 07:45:31;;;;;;;14.85;10.25;;;;;;;;;;5073635;28;20212;-74
2022/06/06 07:48:04;;;;;;;17.17;11.13;;;;;;;;;;5057813;28;20041;-74
2022/06/06 07:50:33;;;;;;;16.63;11.00;;;;;;;;;;5073132;28;20506;-75
2022/06/06 07:53:05;;;;;;;16.05;11.15;;;;;;;;;;5073965;28;20044;-75
2022/06/06 07:55:32;;;;;;;16.20;10.73;;;;;;;;;;5071051;28;20045;-76
2022/06/06 07:58:08;;;;;;;17.48;11.30;;;;;;;;;;5073537;28;20041;-74
2022/06/06 08:00:34;;;;;;;17.33;11.35;;;;;;;;;;5068379;28;20107;-74
2022/06/06 08:03:00;;;;;;;17.45;11.80;;;;;;;;;;5057156;28;20514;-74
2022/06/06 08:05:37;;;;;;;18.45;12.63;;;;;;;;;;5057022;28;20049;-76
2022/06/06 08:08:14;;;;;;;19.35;11.43;;;;;;;;;;5073090;28;20048;-75
2022/06/06 08:10:43;;;;;;;18.25;12.30;;;;;;;;;;5064558;28;20566;-75
2022/06/06 08:13:21;;;;;;;17.38;11.32;;;;;;;;;;5057579;28;20048;-75
2022/06/06 08:16:06;;;;;;;18.42;11.13;;;;;;;;;;5059096;28;20048;-74
2022/06/06 08:18:58;;;;;;;17.63;10.93;;;;;;;;;;5066854;28;20045;-75
2022/06/06 08:21:39;;;;;;;18.33;11.50;;;;;;;;;;5056864;28;20056;-74
2022/06/06 08:24:08;;;;;;;;;;;;;;;;;;5077725;28;20071;-74
2022/06/06 08:26:38;;;;;;;18.08;10.75;;;;;;;;;;5070419;28;19951;-75
2022/06/06 08:29:05;;;;;;;21.77;11.55;;;;;;;;;;5069632;28;20064;-74
2022/06/06 08:31:31;;;;;;;19.35;12.57;;;;;;;;;;5072110;28;20046;-74
2022/06/06 08:33:57;;;;;;;18.92;12.10;;;;;;;;;;5061137;28;20041;-76
2022/06/06 08:36:26;;;;;;;17.00;11.35;;;;;;;;;;5057121;28;20079;-74
2022/06/06 08:39:16;;;;;;;14.45;10.15;;;;;;;;;;5057454;28;20037;-75
2022/06/06 08:42:01;;;;;;;15.63;10.07;;;;;;;;;;5052679;28;20045;-75
2022/06/06 08:44:28;;;;;;;13.35;9.63;;;;;;;;;;5056676;28;20488;-74
2022/06/06 08:47:02;;;;;;;13.02;8.00;;;;;;;;;;5076550;28;20053;-74
2022/06/06 08:52:36;;;;;;;9.52;5.28;;;;;;;;;;5076247;28;20087;-74
2022/06/06 08:55:18;;;;;;;9.32;4.78;;;;;;;;;;5059655;28;20142;-73
2022/06/06 08:57:57;;;;;;;8.38;4.47;;;;;;;;;;5072557;28;20048;-75
2022/06/06 09:00:26;;;;;;;8.73;4.45;;;;;;;;;;5074452;28;20036;-75
2022/06/06 09:03:15;;;;;;;7.28;3.80;;;;;;;;;;5061256;28;20075;-74
2022/06/06 09:06:06;;;;;;;9.50;3.25;;;;;;;;;;5068572;28;20056;-75
2022/06/06 09:08:51;;;;;;;6.80;2.70;;;;;;;;;;5074907;28;20087;-75
2022/06/06 09:11:38;;;;;;;6.80;3.00;;;;;;;;;;5073803;28;20063;-75
2022/06/06 09:14:04;;;;;;;6.78;2.50;;;;;;;;;;5072806;28;20071;-74
2022/06/06 09:16:39;;;;;;;6.63;2.47;;;;;;;;;;5075349;28;20415;-73
2022/06/06 09:19:11;;;;;;;8.35;2.78;;;;;;;;;;5074045;28;20123;-75
2022/06/06 09:21:41;;;;;;;6.57;2.40;;;;;;;;;;5075360;28;20052;-76
2022/06/06 09:24:27;;;;;;;5.45;2.15;;;;;;;;;;5068845;28;20059;-75
2022/06/06 09:27:02;;;;;;;7.70;2.65;;;;;;;;;;5069559;28;20044;-76
2022/06/06 09:29:34;;;;;;;7.82;2.53;;;;;;;;;;5075661;28;20521;-75
2022/06/06 09:32:07;;;;;;;6.15;2.28;;;;;;;;;;5076112;28;20558;-75
2022/06/06 09:34:42;;;;;;;7.10;1.92;;;;;;;;;;5076172;28;20491;-75
2022/06/06 09:37:31;;;;;;;5.85;1.75;;;;;;;;;;5075924;28;20055;-75
2022/06/06 09:40:04;;;;;;;7.32;2.00;;;;;;;;;;5074207;28;20452;-76
2022/06/06 09:42:56;;;;;;;5.00;1.98;;;;;;;;;;5072169;28;20086;-76
2022/06/06 09:45:34;;;;;;;7.30;1.98;;;;;;;;;;5061434;28;20379;-75
2022/06/06 09:48:18;;;;;;;7.22;2.00;;;;;;;;;;5075319;28;20421;-75
2022/06/06 09:51:23;;;;;;;6.68;1.75;;;;;;;;;;5076067;28;20048;-76
2022/06/06 10:00:05;;;;;;;8.30;1.77;;;;;;;;;;5068394;28;20059;-76
2022/06/06 10:02:43;;;;;;;4.78;1.73;;;;;;;;;;5066075;28;20045;-74
2022/06/06 10:05:22;;;;;;;5.72;1.80;;;;;;;;;;5055801;28;20064;-75
2022/06/06 10:07:54;;;;;;;6.25;1.30;;;;;;;;;;5072940;28;20049;-75
2022/06/06 10:10:33;;;;;;;8.60;1.30;;;;;;;;;;5072091;28;20460;-75
2022/06/06 10:13:15;;;;;;;8.43;1.55;;;;;;;;;;5052633;28;20191;-75
2022/06/06 10:15:49;;;;;;;4.90;1.65;;;;;;;;;;5059472;28;20558;-75
2022/06/06 10:18:31;;;;;;;5.13;1.23;;;;;;;;;;5073157;28;20045;-75
2022/06/06 10:20:57;;;;;;;;;;;;;;;;;;5073866;28;20044;-75
2022/06/06 10:23:36;;;;;;;5.97;1.50;;;;;;;;;;5074040;28;19969;-76
2022/06/06 10:26:10;;;;;;;5.32;1.83;;;;;;;;;;5060533;28;20400;-76
2022/06/06 10:28:36;;;;;;;7.20;1.90;;;;;;;;;;5070785;28;20127;-75
2022/06/06 10:31:05;;;;;;;6.30;1.90;;;;;;;;;;5074439;28;20129;-74
2022/06/06 10:33:46;;;;;;;6.93;1.70;;;;;;;;;;5074690;28;20123;-75
2022/06/06 10:36:36;;;;;;;7.32;1.67;;;;;;;;;;5072594;28;20045;-76
2022/06/06 10:39:20;;;;;;;6.65;1.70;;;;;;;;;;5075273;28;20037;-76
2022/06/06 10:41:55;;;;;;;8.32;2.60;;;;;;;;;;5074801;28;20093;-74
2022/06/06 10:44:43;;;;;;;7.13;1.90;;;;;;;;;;5075072;28;20052;-75
2022/06/06 10:47:17;;;;;;;5.47;1.70;;;;;;;;;;5074199;28;20046;-75
2022/06/06 10:49:43;;;;;;;6.32;1.83;;;;;;;;;;5074463;28;20527;-74
2022/06/06 10:52:13;;;;;;;5.35;2.13;;;;;;;;;;5073113;28;20068;-75
2022/06/06 10:54:53;;;;;;;6.70;2.15;;;;;;;;;;5056067;28;20045;-74
2022/06/06 10:57:19;;;;;;;10.10;2.45;;;;;;;;;;5065960;28;20053;-75
2022/06/06 11:00:03;;;;;;;5.57;2.10;;;;;;;;;;5054125;28;20082;-75
2022/06/06 11:02:32;;;;;;;5.78;2.00;;;;;;;;;;5056668;28;20094;-76
2022/06/06 11:05:13;;;;;;;10.70;2.92;;;;;;;;;;5063139;28;20127;-76
2022/06/06 11:07:58;;;;;;;6.75;2.60;;;;;;;;;;5057996;28;20052;-73
2022/06/06 11:10:54;;;;;;;6.53;2.38;;;;;;;;;;5069722;28;20456;-76
2022/06/06 11:13:40;;;;;;;6.22;2.65;;;;;;;;;;5074136;28;20041;-76
2022/06/06 11:16:06;;;;;;;4.45;1.90;;;;;;;;;;5059154;28;20045;-76
2022/06/06 11:18:42;;;;;;;5.30;1.27;;;;;;;;;;5059328;28;20048;-75
2022/06/06 11:21:08;;;;;;;7.10;1.40;;;;;;;;;;5069678;28;20056;-75
2022/06/06 11:23:41;;;;;;;4.72;1.30;;;;;;;;;;5052842;28;20053;-75
2022/06/06 11:26:22;;;;;;;2.83;0.80;;;;;;;;;;5058689;28;20044;-75
2022/06/06 11:28:57;;;;;;;2.08;0.70;;;;;;;;;;5069205;28;20418;-76
2022/06/06 11:31:32;;;;;;;4.90;1.08;;;;;;;;;;5056065;28;20048;-76
2022/06/06 11:34:02;;;;;;;3.83;1.00;;;;;;;;;;5060087;28;20041;-75
2022/06/06 11:36:53;;;;;;;3.60;1.25;;;;;;;;;;5070867;28;20047;-74
2022/06/06 11:39:28;;;;;;;2.97;1.10;;;;;;;;;;5074931;28;20044;-75
2022/06/06 11:42:06;;;;;;;3.60;1.30;;;;;;;;;;5081114;28;20085;-75
2022/06/06 11:44:51;;;;;;;4.05;1.40;;;;;;;;;;5076754;28;20394;-74
2022/06/06 11:47:24;;;;;;;3.67;1.40;;;;;;;;;;5058757;28;20045;-75
2022/06/06 11:49:50;;;;;;;5.38;1.45;;;;;;;;;;5057781;28;20076;-76
2022/06/06 11:52:34;;;;;;;5.28;1.30;;;;;;;;;;5057866;28;20364;-76
2022/06/06 11:55:11;;;;;;;3.97;1.20;;;;;;;;;;5059637;28;20587;-76
2022/06/06 11:57:43;;;;;;;5.57;1.13;;;;;;;;;;5077579;28;20530;-75
2022/06/06 12:00:11;;;;;;;3.25;1.17;;;;;;;;;;5069836;28;20047;-76
2022/06/06 12:02:40;;;;;;;3.33;1.35;;;;;;;;;;5061948;28;20044;-76
2022/06/06 12:05:25;;;;;;;4.32;1.40;;;;;;;;;;5061037;28;20486;-75
2022/06/06 12:08:10;;;;;;;4.03;1.60;;;;;;;;;;5058709;28;20535;-76
2022/06/06 12:10:48;;;;;;;6.28;1.50;;;;;;;;;;5067229;28;20045;-75
2022/06/06 12:13:37;;;;;;;4.88;1.65;;;;;;;;;;5064096;28;20052;-76
2022/06/06 12:16:06;;;;;;;3.40;1.52;;;;;;;;;;5071550;28;20518;-76
2022/06/06 12:18:35;;;;;;;5.25;1.30;;;;;;;;;;5073851;28;20052;-76
2022/06/06 12:21:19;;;;;;;3.53;1.00;;;;;;;;;;5074597;28;20107;-75
2022/06/06 12:24:11;;;;;;;2.75;0.90;;;;;;;;;;5091455;28;20586;-75
2022/06/06 12:26:52;;;;;;;4.30;1.33;;;;;;;;;;5072567;28;20095;-76
2022/06/06 12:29:26;;;;;;;3.22;1.25;;;;;;;;;;5073804;28;20123;-75
2022/06/06 12:32:01;;;;;;;4.70;1.40;;;;;;;;;;5075416;28;20114;-74
2022/06/06 12:34:34;;;;;;;4.32;1.38;;;;;;;;;;5065769;28;20044;-74
2022/06/06 12:37:15;;;;;;;5.55;1.60;;;;;;;;;;5073141;28;20158;-76
2022/06/06 12:39:55;;;;;;;3.35;1.48;;;;;;;;;;5072486;28;20056;-75
2022/06/06 12:42:33;;;;;;;6.75;1.83;;;;;;;;;;5056271;28;20111;-75
2022/06/06 12:45:07;;;;;;;4.47;1.50;;;;;;;;;;5070156;28;20056;-75
2022/06/06 12:47:55;;;;;;;5.53;1.50;;;;;;;;;;5079969;28;20129;-74
2022/06/06 12:50:23;;;;;;;4.63;1.45;;;;;;;;;;5067158;28;20043;-74
2022/06/06 12:52:57;;;;;;;3.95;1.45;;;;;;;;;;5053909;28;20057;-74
2022/06/06 12:55:38;;;;;;;3.67;1.50;;;;;;;;;;5056778;28;20510;-74
2022/06/06 12:58:17;;;;;;;5.63;1.60;;;;;;;;;;5070111;28;20052;-76
2022/06/06 13:03:53;;;;;;;4.07;1.40;;;;;;;;;;5066903;28;20079;-75
2022/06/06 13:06:41;;;;;;;4.53;1.50;;;;;;;;;;5056910;28;20041;-75
2022/06/06 13:09:17;;;;;;;4.75;1.30;;;;;;;;;;5071769;28;20055;-76
2022/06/06 13:11:48;;;;;;;4.50;1.30;;;;;;;;;;5075462;28;20074;-73
2022/06/06 13:14:25;;;;;;;4.30;1.17;;;;;;;;;;5063882;28;20052;-76
2022/06/06 13:16:54;;;;;;;5.07;1.30;;;;;;;;;;5059569;28;20502;-74
2022/06/06 13:19:30;;;;;;;4.75;1.38;;;;;;;;;;5062138;28;20048;-73
2022/06/06 13:22:02;;;;;;;5.13;1.40;;;;;;;;;;5065754;28;20041;-74
2022/06/06 13:24:52;;;;;;;5.43;1.38;;;;;;;;;;5065547;28;20049;-75
2022/06/06 13:27:27;;;;;;;4.47;1.40;;;;;;;;;;5012215;28;20053;-73
2022/06/06 13:29:53;;;;;;;4.85;1.30;;;;;;;;;;5033962;28;20064;-75
2022/06/06 13:32:22;;;;;;;4.60;1.80;;;;;;;;;;5029080;28;20132;-75
2022/06/06 13:34:53;;;;;;;5.97;1.60;;;;;;;;;;5031332;28;20125;-75
2022/06/06 13:37:25;;;;;;;4.72;1.70;;;;;;;;;;5050514;28;20045;-73
2022/06/06 13:40:07;;;;;;;3.42;1.20;;;;;;;;;;5038195;28;20045;-74
2022/06/06 13:42:50;;;;;;;3.63;1.23;;;;;;;;;;5034191;28;20504;-75
2022/06/06 13:45:30;;;;;;;5.00;1.10;;;;;;;;;;5016498;28;20440;-74
2022/06/06 13:48:21;;;;;;;1.88;0.88;;;;;;;;;;5033997;28;20056;-75
2022/06/06 13:50:47;;;;;;;3.33;0.80;;;;;;;;;;5033812;28;20059;-75
2022/06/06 13:53:32;;;;;;;4.82;0.90;;;;;;;;;;5033974;28;20124;-75
2022/06/06 13:56:08;;;;;;;3.33;1.00;;;;;;;;;;5034023;28;20123;-76
2022/06/06 13:58:56;;;;;;;4.28;0.90;;;;;;;;;;5031444;28;20057;-76
2022/06/06 14:01:25;;;;;;;2.92;1.00;;;;;;;;;;5014171;28;20065;-76
2022/06/06 14:03:54;;;;;;;3.63;1.05;;;;;;;;;;5051325;28;20052;-76
2022/06/06 14:06:36;;;;;;;4.55;1.40;;;;;;;;;;5075926;28;20094;-75
2022/06/06 14:09:02;;;;;;;6.60;1.50;;;;;;;;;;5074149;28;20076;-75
2022/06/06 14:11:38;;;;;;;3.78;1.50;;;;;;;;;;5058394;28;20044;-76
2022/06/06 14:14:05;;;;;;;3.72;1.38;;;;;;;;;;5058838;28;20128;-76
2022/06/06 14:16:44;;;;;;;3.85;1.67;;;;;;;;;;5066056;28;20052;-75
2022/06/06 14:19:12;;;;;;;4.40;1.75;;;;;;;;;;5073088;28;20047;-75
2022/06/06 14:21:48;;;;;;;5.63;1.90;;;;;;;;;;5079446;28;20047;-75
2022/06/06 14:24:16;;;;;;;5.53;1.98;;;;;;;;;;5095491;28;20036;-74
2022/06/06 14:26:49;;;;;;;4.00;2.00;;;;;;;;;;5087470;28;20037;-75
2022/06/06 14:29:22;;;;;;;5.30;2.00;;;;;;;;;;5072577;28;20541;-74
2022/06/06 14:31:59;;;;;;;4.35;1.80;;;;;;;;;;5062032;28;20667;-74
2022/06/06 14:34:34;;;;;;;4.35;2.33;;;;;;;;;;5072958;28;20048;-75
2022/06/06 14:37:06;;;;;;;5.13;2.70;;;;;;;;;;5069450;28;20056;-75
2022/06/06 14:39:33;;;;;;;6.10;3.00;;;;;;;;;;5060660;28;20075;-75
2022/06/06 14:42:02;;;;;;;7.93;3.17;;;;;;;;;;5056630;28;20041;-76
2022/06/06 14:44:41;;;;;;;7.25;3.50;;;;;;;;;;5073686;28;20490;-75
2022/06/06 14:47:10;;;;;;;5.70;2.83;;;;;;;;;;5074416;28;20051;-75
2022/06/06 14:49:38;;;;;;;7.68;3.00;;;;;;;;;;5074780;28;20080;-75
2022/06/06 14:52:10;;;;;;;6.18;2.72;;;;;;;;;;5072813;28;20053;-76
2022/06/06 14:54:37;;;;;;;5.80;2.78;;;;;;;;;;5063650;28;20041;-76
2022/06/06 14:57:05;;;;;;;5.15;2.70;;;;;;;;;;5056756;28;20051;-74
2022/06/06 14:59:43;;;;;;;7.38;2.80;;;;;;;;;;5070458;28;20071;-74
2022/06/06 15:02:15;;;;;;;6.82;3.10;;;;;;;;;;5076371;28;20036;-75
2022/06/06 15:04:41;;;;;;;5.05;2.65;;;;;;;;;;5073382;28;20044;-76
2022/06/06 15:07:09;;;;;;;5.45;2.60;;;;;;;;;;5072539;28;20040;-75
2022/06/06 15:09:40;;;;;;;5.10;2.97;;;;;;;;;;5064272;28;20135;-75
2022/06/06 15:12:10;;;;;;;5.28;2.78;;;;;;;;;;5074709;28;20049;-75
2022/06/06 15:14:37;;;;;;;6.90;2.78;;;;;;;;;;5084675;28;20093;-74
2022/06/06 15:17:05;;;;;;;6.32;2.88;;;;;;;;;;5096780;28;20040;-76
2022/06/06 15:19:43;;;;;;;5.65;3.00;;;;;;;;;;5078882;28;20407;-74
2022/06/06 15:22:14;;;;;;;7.60;3.35;;;;;;;;;;5079174;28;20378;-75
2022/06/06 15:24:44;;;;;;;6.90;3.35;;;;;;;;;;5075605;28;20049;-75
2022/06/06 15:27:30;;;;;;;6.93;3.20;;;;;;;;;;5072795;28;20055;-75
2022/06/06 15:30:10;;;;;;;8.48;3.75;;;;;;;;;;5054850;28;20049;-75
2022/06/06 15:32:36;;;;;;;8.52;3.88;;;;;;;;;;5065720;28;20053;-77
2022/06/06 15:35:08;;;;;;;7.60;3.65;;;;;;;;;;5070761;28;20045;-77
2022/06/06 15:37:40;;;;;;;8.57;4.72;;;;;;;;;;5065058;28;20049;-76
2022/06/06 15:40:15;;;;;;;7.25;3.83;;;;;;;;;;5067821;28;20045;-75
2022/06/06 15:42:44;;;;;;;6.85;4.07;;;;;;;;;;5073073;28;20045;-75